createdAt,value
2019-03-08T00:01:02.746Z,64.90
2019-03-08T00:03:06.623Z,65.00
2019-03-08T00:05:10.454Z,65.10
2019-03-08T00:07:14.466Z,65.20
2019-03-08T00:09:18.335Z,65.30
2019-03-08T00:11:22.135Z,65.20
2019-03-08T00:13:26.029Z,65.60
2019-03-08T00:15:29.881Z,65.70
2019-03-08T00:17:33.746Z,65.80
2019-03-08T00:19:37.724Z,65.80
2019-03-08T00:21:41.759Z,65.60
2019-03-08T00:23:45.691Z,65.90
2019-03-08T00:25:49.568Z,66.00
2019-03-08T00:27:53.556Z,65.70
2019-03-08T00:29:57.588Z,65.80
2019-03-08T00:32:01.697Z,65.70
2019-03-08T00:34:05.614Z,65.80
2019-03-08T00:36:09.634Z,65.80
2019-03-08T00:38:13.667Z,65.80
2019-03-08T00:40:17.701Z,65.80
2019-03-08T00:42:21.606Z,66.00
2019-03-08T00:44:25.514Z,66.00
2019-03-08T00:46:29.446Z,66.00
2019-03-08T00:48:33.325Z,66.20
2019-03-08T00:50:37.477Z,66.40
2019-03-08T00:52:41.465Z,66.30
2019-03-08T00:54:45.473Z,66.20
2019-03-08T00:56:49.331Z,66.10
2019-03-08T00:58:53.207Z,65.90
2019-03-08T01:00:57.133Z,66.10
2019-03-08T01:03:01.018Z,66.10
2019-03-08T01:05:07.463Z,66.20
2019-03-08T01:07:11.374Z,66.30
2019-03-08T01:09:15.226Z,66.50
2019-03-08T01:11:19.078Z,67.00
2019-03-08T01:13:22.957Z,67.00
2019-03-08T01:15:26.823Z,67.40
2019-03-08T01:17:30.689Z,67.50
2019-03-08T01:19:34.599Z,67.50
2019-03-08T01:21:38.458Z,67.60
2019-03-08T01:23:42.415Z,67.70
2019-03-08T01:25:46.274Z,67.90
2019-03-08T01:28:05.350Z,67.90
2019-03-08T01:30:13.515Z,68.10
2019-03-08T01:32:17.350Z,68.30
2019-03-08T01:34:21.206Z,68.60
2019-03-08T01:36:25.039Z,68.50
2019-03-08T01:38:28.927Z,68.40
2019-03-08T01:40:32.750Z,68.30
2019-03-08T01:42:36.662Z,68.10
2019-03-08T01:44:40.523Z,68.20
2019-03-08T01:46:44.506Z,68.30
2019-03-08T01:48:48.428Z,68.30
2019-03-08T01:50:52.260Z,68.40
2019-03-08T01:52:56.094Z,68.40
2019-03-08T01:55:00.027Z,68.20
2019-03-08T01:57:04.338Z,68.30
2019-03-08T01:59:08.506Z,68.10
2019-03-08T02:01:24.119Z,68.10
2019-03-08T02:03:28.160Z,68.20
2019-03-08T02:05:32.107Z,68.30
2019-03-08T02:07:36.086Z,68.20
2019-03-08T02:09:40.416Z,68.00
2019-03-08T02:11:44.690Z,68.10
2019-03-08T02:13:48.498Z,68.00
2019-03-08T02:15:52.502Z,68.00
2019-03-08T02:17:56.551Z,68.10
2019-03-08T02:20:00.371Z,68.20
2019-03-08T02:22:04.464Z,68.20
2019-03-08T02:24:08.320Z,68.10
2019-03-08T02:26:12.217Z,68.30
2019-03-08T02:28:16.062Z,68.10
2019-03-08T02:30:19.955Z,67.90
2019-03-08T02:32:23.835Z,67.90
2019-03-08T02:34:27.731Z,68.00
2019-03-08T02:36:31.557Z,68.20
2019-03-08T02:38:35.460Z,68.20
2019-03-08T02:40:39.980Z,68.40
2019-03-08T02:42:43.794Z,68.60
2019-03-08T02:44:47.931Z,68.60
2019-03-08T02:46:51.887Z,68.70
2019-03-08T02:48:55.846Z,68.90
2019-03-08T02:50:59.790Z,68.90
2019-03-08T02:53:03.693Z,68.70
2019-03-08T02:55:08.033Z,68.80
2019-03-08T02:57:11.923Z,68.80
2019-03-08T02:59:15.842Z,68.60
2019-03-08T03:01:19.746Z,68.60
2019-03-08T03:03:23.757Z,68.80
2019-03-08T03:05:27.968Z,68.70
2019-03-08T03:07:31.977Z,68.50
2019-03-08T03:09:35.822Z,68.40
2019-03-08T03:11:39.693Z,68.30
2019-03-08T03:13:43.797Z,68.10
2019-03-08T03:15:47.902Z,67.70
2019-03-08T03:17:51.782Z,67.60
2019-03-08T03:19:55.719Z,67.70
2019-03-08T03:21:59.572Z,67.70
2019-03-08T03:24:03.527Z,67.80
2019-03-08T03:26:07.333Z,67.90
2019-03-08T03:28:11.186Z,67.90
2019-03-08T03:30:20.256Z,67.80
2019-03-08T03:32:24.143Z,67.80
2019-03-08T03:34:28.027Z,67.50
2019-03-08T03:36:32.076Z,67.50
2019-03-08T03:38:35.982Z,67.60
2019-03-08T03:40:39.862Z,67.50
2019-03-08T03:42:43.740Z,67.50
2019-03-08T03:44:47.697Z,67.20
2019-03-08T03:46:51.552Z,68.00
2019-03-08T03:48:55.499Z,67.20
2019-03-08T03:50:59.515Z,67.10
2019-03-08T03:53:03.524Z,67.00
2019-03-08T03:55:15.503Z,67.00
2019-03-08T03:57:19.367Z,66.80
2019-03-08T03:59:23.329Z,66.40
2019-03-08T04:01:31.944Z,66.60
2019-03-08T04:03:35.992Z,66.40
2019-03-08T04:05:40.350Z,66.40
2019-03-08T04:07:44.274Z,66.20
2019-03-08T04:09:48.167Z,66.10
2019-03-08T04:11:52.125Z,66.10
2019-03-08T04:13:56.297Z,65.90
2019-03-08T04:16:00.450Z,65.90
2019-03-08T04:18:04.261Z,65.90
2019-03-08T04:20:10.971Z,65.60
2019-03-08T04:22:14.891Z,65.30
2019-03-08T04:24:18.733Z,65.00
2019-03-08T04:26:22.803Z,64.60
2019-03-08T04:28:26.704Z,64.40
2019-03-08T04:30:30.585Z,64.60
2019-03-08T04:32:34.530Z,64.50
2019-03-08T04:34:38.526Z,64.60
2019-03-08T04:36:42.531Z,64.20
2019-03-08T04:38:46.434Z,64.40
2019-03-08T04:40:50.345Z,64.40
2019-03-08T04:42:54.252Z,64.30
2019-03-08T04:44:58.294Z,64.30
2019-03-08T04:47:02.224Z,64.20
2019-03-08T04:49:06.064Z,64.30
2019-03-08T04:51:10.077Z,64.40
2019-03-08T04:53:13.932Z,64.40
2019-03-08T04:55:20.330Z,64.30
2019-03-08T04:57:24.540Z,64.40
2019-03-08T04:59:28.563Z,64.20
2019-03-08T05:01:32.546Z,64.30
2019-03-08T05:03:37.191Z,64.10
2019-03-08T05:05:41.181Z,64.10
2019-03-08T05:07:45.105Z,63.70
2019-03-08T05:09:49.113Z,63.60
2019-03-08T05:11:53.007Z,63.70
2019-03-08T05:13:56.922Z,63.70
2019-03-08T05:16:00.828Z,63.90
2019-03-08T05:18:04.733Z,64.20
2019-03-08T05:20:10.072Z,65.20
2019-03-08T05:22:13.918Z,64.50
2019-03-08T05:24:17.883Z,65.00
2019-03-08T05:26:21.767Z,64.10
2019-03-08T05:28:25.796Z,64.10
2019-03-08T05:30:29.701Z,63.70
2019-03-08T05:32:34.014Z,63.60
2019-03-08T05:34:38.125Z,63.30
2019-03-08T05:36:42.030Z,63.10
2019-03-08T05:38:45.872Z,62.90
2019-03-08T05:40:51.623Z,62.90
2019-03-08T05:42:55.613Z,63.30
2019-03-08T05:44:59.494Z,63.20
2019-03-08T05:47:03.478Z,63.20
2019-03-08T05:49:07.282Z,62.90
2019-03-08T05:51:11.517Z,62.60
2019-03-08T05:53:15.401Z,62.50
2019-03-08T05:55:19.243Z,62.40
2019-03-08T05:57:23.156Z,62.50
2019-03-08T05:59:27.140Z,62.00
2019-03-08T06:01:31.318Z,62.10
2019-03-08T06:03:35.254Z,62.30
2019-03-08T06:05:39.263Z,62.20
2019-03-08T06:07:43.169Z,62.10
2019-03-08T06:09:47.022Z,62.00
2019-03-08T06:11:51.370Z,61.80
2019-03-08T06:13:55.246Z,61.90
2019-03-08T06:15:59.308Z,61.90
2019-03-08T06:18:03.504Z,61.70
2019-03-08T06:20:07.330Z,61.70
2019-03-08T06:22:11.301Z,61.60
2019-03-08T06:24:15.147Z,61.50
2019-03-08T06:26:19.136Z,61.70
2019-03-08T06:28:23.040Z,61.40
2019-03-08T06:30:26.896Z,61.30
2019-03-08T06:32:30.724Z,61.00
2019-03-08T06:34:34.635Z,61.10
2019-03-08T06:36:38.462Z,61.20
2019-03-08T06:38:42.673Z,61.20
2019-03-08T06:40:46.516Z,61.10
2019-03-08T06:42:50.386Z,60.60
2019-03-08T06:44:54.227Z,60.40
2019-03-08T06:46:58.086Z,60.30
2019-03-08T06:49:01.930Z,60.20
2019-03-08T06:51:05.799Z,60.10
2019-03-08T06:53:09.700Z,59.30
2019-03-08T06:55:14.778Z,59.50
2019-03-08T06:57:20.360Z,59.40
2019-03-08T06:59:25.684Z,58.90
2019-03-08T07:01:29.535Z,58.80
2019-03-08T07:03:33.362Z,58.50
2019-03-08T07:05:37.271Z,58.70
2019-03-08T07:07:41.190Z,58.50
2019-03-08T07:09:44.976Z,57.70
2019-03-08T07:11:48.851Z,57.70
2019-03-08T07:13:52.717Z,57.60
2019-03-08T07:15:56.587Z,57.50
2019-03-08T07:18:00.453Z,57.60
2019-03-08T07:20:07.139Z,57.60
2019-03-08T07:22:12.530Z,57.80
2019-03-08T07:24:17.958Z,57.40
2019-03-08T07:26:38.771Z,57.20
2019-03-08T07:28:57.507Z,57.70
2019-03-08T07:31:15.061Z,56.60
2019-03-08T07:33:20.491Z,56.70
2019-03-08T07:35:42.083Z,56.90
2019-03-08T07:37:50.738Z,57.00
2019-03-08T07:40:02.207Z,56.60
2019-03-08T07:42:16.494Z,56.20
2019-03-08T07:44:27.955Z,56.30
2019-03-08T07:46:36.315Z,56.20
2019-03-08T07:48:44.464Z,56.10
2019-03-08T07:51:01.881Z,56.30
2019-03-08T07:53:07.435Z,56.40
2019-03-08T07:55:27.843Z,56.00
2019-03-08T07:57:36.043Z,55.40
2019-03-08T07:59:54.205Z,55.50
2019-03-08T08:02:09.076Z,55.50
2019-03-08T08:04:17.139Z,55.30
2019-03-08T08:06:22.546Z,54.80
2019-03-08T08:08:33.758Z,55.00
2019-03-08T08:10:45.653Z,54.60
2019-03-08T08:13:06.299Z,54.40
2019-03-08T08:15:31.463Z,54.00
2019-03-08T08:17:39.822Z,54.20
2019-03-08T08:20:01.786Z,53.90
2019-03-08T08:22:25.391Z,53.10
2019-03-08T08:24:42.298Z,53.70
2019-03-08T08:26:53.863Z,53.30
2019-03-08T08:29:11.206Z,52.70
2019-03-08T08:31:16.650Z,53.20
2019-03-08T08:33:22.043Z,53.30
2019-03-08T08:35:36.491Z,53.00
2019-03-08T08:37:41.951Z,53.30
2019-03-08T08:39:50.365Z,52.70
2019-03-08T08:42:12.636Z,51.70
2019-03-08T08:44:21.133Z,51.70
2019-03-08T08:46:32.362Z,51.40
2019-03-08T08:48:40.696Z,51.50
2019-03-08T08:50:52.383Z,51.30
2019-03-08T08:53:13.098Z,51.50
2019-03-08T08:55:30.453Z,51.50
2019-03-08T08:57:47.962Z,51.40
2019-03-08T08:59:53.432Z,51.00
2019-03-08T09:01:58.841Z,50.00
2019-03-08T09:04:04.254Z,50.30
2019-03-08T09:06:25.821Z,50.00
2019-03-08T09:08:33.966Z,49.60
2019-03-08T09:10:55.678Z,50.10
2019-03-08T09:13:09.830Z,49.70
2019-03-08T09:15:15.412Z,49.10
2019-03-08T09:17:20.889Z,49.20
2019-03-08T09:19:38.642Z,49.10
2019-03-08T09:21:50.787Z,49.20
2019-03-08T09:23:56.223Z,48.20
2019-03-08T09:26:19.970Z,48.50
2019-03-08T09:28:40.213Z,48.70
2019-03-08T09:30:51.369Z,48.30
2019-03-08T09:32:59.994Z,48.80
2019-03-08T09:35:08.754Z,48.00
2019-03-08T09:37:29.527Z,48.90
2019-03-08T09:39:51.220Z,49.50
2019-03-08T09:42:08.671Z,49.40
2019-03-08T09:44:23.202Z,49.40
2019-03-08T09:46:45.343Z,49.10
2019-03-08T09:48:53.718Z,48.90
2019-03-08T09:51:11.253Z,48.50
2019-03-08T09:53:19.638Z,48.60
2019-03-08T09:55:34.227Z,49.00
2019-03-08T09:57:45.595Z,49.10
2019-03-08T09:59:51.068Z,48.90
2019-03-08T10:01:59.206Z,49.30
2019-03-08T10:04:04.719Z,49.70
2019-03-08T10:06:25.187Z,50.70
2019-03-08T10:08:36.423Z,50.20
2019-03-08T10:10:58.267Z,50.00
2019-03-08T10:13:03.762Z,49.40
2019-03-08T10:15:28.245Z,49.70
2019-03-08T10:17:45.443Z,49.30
2019-03-08T10:19:54.126Z,49.00
2019-03-08T10:22:14.784Z,49.40
2019-03-08T10:24:32.245Z,49.50
2019-03-08T10:26:40.358Z,49.30
2019-03-08T10:29:03.832Z,49.60
2019-03-08T10:31:09.231Z,50.30
2019-03-08T10:33:20.312Z,49.20
2019-03-08T10:35:28.526Z,49.30
2019-03-08T10:37:42.705Z,48.70
2019-03-08T10:39:57.167Z,48.90
2019-03-08T10:42:05.486Z,48.80
2019-03-08T10:44:28.747Z,48.90
2019-03-08T10:46:37.023Z,48.20
2019-03-08T10:48:48.282Z,48.00
2019-03-08T10:50:59.414Z,47.80
2019-03-08T10:53:07.539Z,48.10
2019-03-08T10:55:23.325Z,47.50
2019-03-08T10:57:44.127Z,47.30
2019-03-08T10:59:52.564Z,47.30
2019-03-08T11:02:14.241Z,47.40
2019-03-08T11:04:22.684Z,47.60
2019-03-08T11:06:44.695Z,47.50
2019-03-08T11:08:50.103Z,47.10
2019-03-08T11:10:55.537Z,46.60
2019-03-08T11:13:17.193Z,46.60
2019-03-08T11:15:32.296Z,46.60
2019-03-08T11:17:50.476Z,46.60
2019-03-08T11:19:56.469Z,46.80
2019-03-08T11:22:08.179Z,46.70
2019-03-08T11:24:19.595Z,46.10
2019-03-08T11:26:25.030Z,46.10
2019-03-08T11:28:31.019Z,45.70
2019-03-08T11:30:54.121Z,45.70
2019-03-08T11:33:16.819Z,45.70
2019-03-08T11:35:25.424Z,45.40
2019-03-08T11:37:36.917Z,45.40
2019-03-08T11:39:51.339Z,45.50
2019-03-08T11:42:02.762Z,46.00
2019-03-08T11:44:24.680Z,46.00
2019-03-08T11:46:30.116Z,46.20
2019-03-08T11:48:35.555Z,47.00
2019-03-08T11:50:41.010Z,47.20
2019-03-08T11:52:58.669Z,47.40
2019-03-08T11:55:07.047Z,47.30
2019-03-08T11:57:12.487Z,47.10
2019-03-08T11:59:17.914Z,47.00
2019-03-08T12:01:23.375Z,47.00
2019-03-08T12:03:44.182Z,46.60
2019-03-08T12:05:52.487Z,46.60
2019-03-08T12:07:57.958Z,47.00
2019-03-08T12:10:19.951Z,47.20
2019-03-08T12:12:28.303Z,47.20
2019-03-08T12:14:51.829Z,47.40
2019-03-08T12:16:57.263Z,47.60
2019-03-08T12:19:05.400Z,48.00
2019-03-08T12:21:20.174Z,48.50
2019-03-08T12:23:25.594Z,48.60
2019-03-08T12:25:40.972Z,48.60
2019-03-08T12:27:49.225Z,48.60
2019-03-08T12:29:58.110Z,48.20
2019-03-08T12:32:03.563Z,48.20
2019-03-08T12:34:18.001Z,48.40
2019-03-08T12:36:29.444Z,48.30
2019-03-08T12:38:35.042Z,48.40
2019-03-08T12:40:56.714Z,48.70
2019-03-08T12:43:08.136Z,48.60
2019-03-08T12:45:11.675Z,48.30
2019-03-08T12:47:20.157Z,48.40
2019-03-08T12:49:28.582Z,48.50
2019-03-08T12:51:43.491Z,48.70
2019-03-08T12:54:04.154Z,48.40
2019-03-08T12:56:15.558Z,48.20
2019-03-08T12:58:23.783Z,48.30
2019-03-08T13:00:35.274Z,48.50
2019-03-08T13:02:43.777Z,48.50
2019-03-08T13:04:58.254Z,48.60
2019-03-08T13:07:15.618Z,48.50
2019-03-08T13:09:36.044Z,48.40
2019-03-08T13:11:39.962Z,48.70
2019-03-08T13:13:43.817Z,48.40
2019-03-08T13:15:47.911Z,48.40
2019-03-08T13:17:51.771Z,48.40
2019-03-08T13:19:55.636Z,48.50
2019-03-08T13:21:59.490Z,48.60
2019-03-08T13:24:03.428Z,48.60
2019-03-08T13:26:07.353Z,48.40
2019-03-08T13:28:11.211Z,48.30
2019-03-08T13:30:20.935Z,48.60
2019-03-08T13:32:24.771Z,48.40
2019-03-08T13:34:28.667Z,48.60
2019-03-08T13:36:32.554Z,48.60
2019-03-08T13:38:36.683Z,48.60
2019-03-08T13:40:40.634Z,48.40
2019-03-08T13:42:44.469Z,48.90
2019-03-08T13:44:48.357Z,48.80
2019-03-08T13:46:52.235Z,48.10
2019-03-08T13:48:56.243Z,48.50
2019-03-08T13:51:00.134Z,48.90
2019-03-08T13:53:03.971Z,48.60
2019-03-08T13:55:10.900Z,48.90
2019-03-08T13:57:14.726Z,49.10
2019-03-08T13:59:18.586Z,49.30
2019-03-08T14:01:22.453Z,49.20
2019-03-08T14:03:26.293Z,49.20
2019-03-08T14:05:30.174Z,48.70
2019-03-08T14:07:34.018Z,49.50
2019-03-08T14:09:37.911Z,48.80
2019-03-08T14:11:41.779Z,49.00
2019-03-08T14:13:45.617Z,49.00
2019-03-08T14:15:50.159Z,48.50
2019-03-08T14:17:54.033Z,48.60
2019-03-08T14:19:57.884Z,48.50
2019-03-08T14:22:02.075Z,48.90
2019-03-08T14:24:06.009Z,49.00
2019-03-08T14:26:09.860Z,49.30
2019-03-08T14:28:15.118Z,49.20
2019-03-08T14:30:22.534Z,49.30
2019-03-08T14:32:26.909Z,49.00
2019-03-08T14:34:30.784Z,48.50
2019-03-08T14:36:34.695Z,48.90
2019-03-08T14:38:38.882Z,48.90
2019-03-08T14:40:57.336Z,49.00
2019-03-08T14:43:03.239Z,49.20
2019-03-08T14:45:11.030Z,49.50
2019-03-08T14:47:22.545Z,49.80
2019-03-08T14:49:26.615Z,49.70
2019-03-08T14:51:30.469Z,49.70
2019-03-08T14:53:34.469Z,49.60
2019-03-08T14:55:38.353Z,49.70
2019-03-08T14:57:42.307Z,49.10
2019-03-08T14:59:49.336Z,49.10
2019-03-08T15:01:51.616Z,48.80
2019-03-08T15:03:56.609Z,48.70
2019-03-08T15:06:00.706Z,48.80
2019-03-08T15:08:04.886Z,48.40
2019-03-08T15:10:11.863Z,48.60
2019-03-08T15:12:16.748Z,48.80
2019-03-08T15:14:20.739Z,48.90
2019-03-08T15:16:24.657Z,48.90
2019-03-08T15:18:29.769Z,48.70
2019-03-08T15:20:34.032Z,49.00
2019-03-08T15:22:38.292Z,49.20
2019-03-08T15:24:43.269Z,49.40
2019-03-08T15:26:47.107Z,49.50
2019-03-08T15:28:51.031Z,49.70
2019-03-08T15:30:54.869Z,50.00
2019-03-08T15:32:58.711Z,50.20
2019-03-08T15:35:02.626Z,50.60
2019-03-08T15:37:06.778Z,50.60
2019-03-08T15:39:10.716Z,50.80
2019-03-08T15:41:14.571Z,51.10
2019-03-08T15:43:18.463Z,51.30
2019-03-08T15:45:22.327Z,51.00
2019-03-08T15:47:26.224Z,51.90
2019-03-08T15:49:30.532Z,51.50
2019-03-08T15:51:35.428Z,51.70
2019-03-08T15:53:39.313Z,52.00
2019-03-08T15:55:52.254Z,53.00
2019-03-08T15:57:48.652Z,54.10
2019-03-08T15:59:52.809Z,55.10
2019-03-08T16:01:56.613Z,56.50
2019-03-08T16:04:00.470Z,56.40
2019-03-08T16:06:06.508Z,56.90
2019-03-08T16:08:09.890Z,57.20
2019-03-08T16:10:23.859Z,57.20
2019-03-08T16:12:27.724Z,57.10
2019-03-08T16:14:31.564Z,57.40
2019-03-08T16:16:35.394Z,57.90
2019-03-08T16:18:40.036Z,58.20
2019-03-08T16:20:44.784Z,58.70
2019-03-08T16:22:49.548Z,59.00
2019-03-08T16:24:53.411Z,60.10
2019-03-08T16:26:58.747Z,62.50
2019-03-08T16:29:02.704Z,64.80
2019-03-08T16:31:14.538Z,65.50
2019-03-08T16:33:24.933Z,66.40
2019-03-08T16:35:30.193Z,67.30
2019-03-08T16:37:41.263Z,68.00
2019-03-08T16:39:49.410Z,69.00
2019-03-08T16:42:06.730Z,67.70
2019-03-08T16:44:21.466Z,67.80
2019-03-08T16:46:29.810Z,67.60
2019-03-08T16:48:45.845Z,68.70
2019-03-08T16:50:56.259Z,70.40
2019-03-08T16:53:10.190Z,71.30
2019-03-08T16:55:20.127Z,72.40
2019-03-08T16:57:25.585Z,72.40
2019-03-08T16:59:30.996Z,73.10
2019-03-08T17:01:42.675Z,72.90
2019-03-08T17:04:04.154Z,73.20
2019-03-08T17:06:27.144Z,72.10
2019-03-08T17:08:31.829Z,71.20
2019-03-08T17:10:37.271Z,72.00
2019-03-08T17:12:48.246Z,71.20
2019-03-08T17:15:09.098Z,71.60
2019-03-08T17:17:30.234Z,72.20
2019-03-08T17:19:35.800Z,72.60
2019-03-08T17:21:57.647Z,73.80
2019-03-08T17:24:03.039Z,73.70
2019-03-08T17:26:18.167Z,74.10
2019-03-08T17:28:29.678Z,74.40
2019-03-08T17:30:51.223Z,74.60
2019-03-08T17:33:02.483Z,74.80
2019-03-08T17:35:26.921Z,74.70
2019-03-08T17:37:32.403Z,74.60
2019-03-08T17:39:43.746Z,74.50
2019-03-08T17:42:04.654Z,74.90
2019-03-08T17:44:19.159Z,74.90
2019-03-08T17:46:40.903Z,75.20
2019-03-08T17:48:49.039Z,75.00
2019-03-08T17:50:54.490Z,74.60
2019-03-08T17:53:15.066Z,75.00
2019-03-08T17:55:20.894Z,75.10
2019-03-08T17:57:44.624Z,75.30
2019-03-08T17:59:50.145Z,74.90
2019-03-08T18:01:55.557Z,75.10
2019-03-08T18:04:00.963Z,74.90
2019-03-08T18:06:06.421Z,74.80
2019-03-08T18:08:23.613Z,74.70
2019-03-08T18:10:47.363Z,75.00
2019-03-08T18:13:09.349Z,74.80
2019-03-08T18:15:27.130Z,74.70
2019-03-08T18:17:35.166Z,74.90
2019-03-08T18:19:40.602Z,74.90
2019-03-08T18:21:58.496Z,74.60
2019-03-08T18:24:23.380Z,74.60
2019-03-08T18:26:32.142Z,74.70
2019-03-08T18:28:53.859Z,74.50
2019-03-08T18:31:15.853Z,74.80
2019-03-08T18:33:21.304Z,74.40
2019-03-08T18:35:32.595Z,74.20
2019-03-08T18:37:53.207Z,74.30
2019-03-08T18:40:01.175Z,73.50
2019-03-08T18:42:06.584Z,73.20
2019-03-08T18:44:17.747Z,72.80
2019-03-08T18:46:28.886Z,72.40
2019-03-08T18:48:43.999Z,71.90
2019-03-08T18:50:52.615Z,72.10
2019-03-08T18:53:07.341Z,72.30
2019-03-08T18:55:15.271Z,72.30
2019-03-08T18:57:37.299Z,72.50
2019-03-08T18:59:48.812Z,72.40
2019-03-08T19:02:00.410Z,72.80
2019-03-08T19:04:21.303Z,73.00
2019-03-08T19:06:43.069Z,73.10
2019-03-08T19:08:48.514Z,73.40
2019-03-08T19:11:08.922Z,73.80
2019-03-08T19:13:32.273Z,74.00
2019-03-08T19:15:37.686Z,74.10
2019-03-08T19:17:45.827Z,73.90
2019-03-08T19:20:07.319Z,74.20
2019-03-08T19:22:26.178Z,74.20
2019-03-08T19:24:35.009Z,74.20
2019-03-08T19:26:40.591Z,74.00
2019-03-08T19:28:46.000Z,73.90
2019-03-08T19:31:08.126Z,73.90
2019-03-08T19:33:16.325Z,73.70
2019-03-08T19:35:27.715Z,74.20
2019-03-08T19:37:45.509Z,74.60
2019-03-08T19:39:50.942Z,74.50
2019-03-08T19:41:59.368Z,74.50
2019-03-08T19:44:07.713Z,74.50
2019-03-08T19:46:13.175Z,74.20
2019-03-08T19:48:18.655Z,73.70
2019-03-08T19:50:29.932Z,73.60
2019-03-08T19:52:35.306Z,73.60
2019-03-08T19:54:41.007Z,73.30
2019-03-08T19:56:49.346Z,73.30
2019-03-08T19:59:10.115Z,74.10
2019-03-08T20:01:15.603Z,73.50
2019-03-08T20:03:21.055Z,73.00
2019-03-08T20:05:26.458Z,72.90
2019-03-08T20:07:31.892Z,73.00
2019-03-08T20:09:40.462Z,73.10
2019-03-08T20:12:04.296Z,73.20
2019-03-08T20:14:15.383Z,73.30
2019-03-08T20:16:26.489Z,73.40
2019-03-08T20:18:46.818Z,73.20
2019-03-08T20:21:08.589Z,73.20
2019-03-08T20:23:16.939Z,73.60
2019-03-08T20:25:31.299Z,73.60
2019-03-08T20:27:43.013Z,73.90
2019-03-08T20:30:04.704Z,73.70
2019-03-08T20:32:13.131Z,73.70
2019-03-08T20:34:24.746Z,73.70
2019-03-08T20:36:30.223Z,73.80
2019-03-08T20:38:47.484Z,74.00
2019-03-08T20:40:55.699Z,74.10
2019-03-08T20:43:01.183Z,74.30
2019-03-08T20:45:09.234Z,74.60
2019-03-08T20:47:17.728Z,74.50
2019-03-08T20:49:21.690Z,74.80
2019-03-08T20:51:25.651Z,75.00
2019-03-08T20:53:29.542Z,75.10
2019-03-08T20:55:33.422Z,75.20
2019-03-08T20:57:37.453Z,75.30
2019-03-08T20:59:41.306Z,75.60
2019-03-08T21:01:45.189Z,75.90
2019-03-08T21:03:49.048Z,76.10
2019-03-08T21:05:52.966Z,76.20
2019-03-08T21:07:56.794Z,76.10
2019-03-08T21:10:00.696Z,76.00
2019-03-08T21:12:04.625Z,76.10
2019-03-08T21:14:08.733Z,76.00
2019-03-08T21:16:12.682Z,76.20
2019-03-08T21:18:16.478Z,75.60
2019-03-08T21:20:20.655Z,75.60
2019-03-08T21:22:24.475Z,75.40
2019-03-08T21:24:28.342Z,75.00
2019-03-08T21:26:32.239Z,75.00
2019-03-08T21:28:36.114Z,74.80
2019-03-08T21:30:39.980Z,74.60
2019-03-08T21:32:43.895Z,74.50
2019-03-08T21:34:47.930Z,74.10
2019-03-08T21:36:51.956Z,74.10
2019-03-08T21:38:55.863Z,73.70
2019-03-08T21:40:59.766Z,73.60
2019-03-08T21:43:03.674Z,73.70
2019-03-08T21:45:15.666Z,73.80
2019-03-08T21:47:19.547Z,73.90
2019-03-08T21:49:23.398Z,73.90
2019-03-08T21:51:27.282Z,73.90
2019-03-08T21:53:31.187Z,74.10
2019-03-08T21:55:35.107Z,74.00
2019-03-08T21:57:38.951Z,74.20
2019-03-08T21:59:42.782Z,74.10
2019-03-08T22:01:46.711Z,74.20
2019-03-08T22:03:52.114Z,74.30
2019-03-08T22:05:55.990Z,74.20
2019-03-08T22:08:00.878Z,74.10
2019-03-08T22:10:09.411Z,74.10
2019-03-08T22:12:13.299Z,73.90
2019-03-08T22:14:17.220Z,73.80
2019-03-08T22:16:21.050Z,73.90
2019-03-08T22:18:24.966Z,74.00
2019-03-08T22:20:28.982Z,73.90
2019-03-08T22:22:32.848Z,73.90
2019-03-08T22:24:36.736Z,73.70
2019-03-08T22:26:40.699Z,73.70
2019-03-08T22:28:44.591Z,73.70
2019-03-08T22:30:48.421Z,73.60
2019-03-08T22:32:52.278Z,73.70
2019-03-08T22:34:56.196Z,73.70
2019-03-08T22:37:00.051Z,73.70
2019-03-08T22:39:05.514Z,73.70
2019-03-08T22:41:09.441Z,73.60
2019-03-08T22:43:13.416Z,73.60
2019-03-08T22:45:17.435Z,73.30
2019-03-08T22:47:21.776Z,73.30
2019-03-08T22:49:25.679Z,73.20
2019-03-08T22:51:29.747Z,74.00
2019-03-08T22:53:33.788Z,73.50
2019-03-08T22:55:38.475Z,73.50
2019-03-08T22:57:42.376Z,73.00
2019-03-08T22:59:46.296Z,72.90
2019-03-08T23:01:52.777Z,72.80
2019-03-08T23:03:56.634Z,72.90
2019-03-08T23:06:00.619Z,72.60
2019-03-08T23:08:04.857Z,72.40
2019-03-08T23:10:12.389Z,72.50
2019-03-08T23:12:16.486Z,72.30
2019-03-08T23:14:20.627Z,72.30
2019-03-08T23:16:24.822Z,72.40
2019-03-08T23:18:28.919Z,72.40
2019-03-08T23:20:33.341Z,72.50
2019-03-08T23:22:37.323Z,72.60
2019-03-08T23:24:41.371Z,72.60
2019-03-08T23:26:47.309Z,72.40
2019-03-08T23:28:53.750Z,72.40
2019-03-08T23:30:59.740Z,72.40
2019-03-08T23:33:04.299Z,72.40
2019-03-08T23:35:08.528Z,72.00
2019-03-08T23:37:12.743Z,72.00
2019-03-08T23:39:16.722Z,72.00
2019-03-08T23:41:21.034Z,71.80
2019-03-08T23:43:25.004Z,72.10
2019-03-08T23:45:29.239Z,71.80
2019-03-08T23:47:33.270Z,71.40
2019-03-08T23:49:37.237Z,71.40
2019-03-08T23:51:41.289Z,71.30
2019-03-08T23:53:45.151Z,71.20
2019-03-08T23:55:49.040Z,71.30
2019-03-08T23:57:52.901Z,71.30
2019-03-08T23:59:56.766Z,71.30
